createdAt,value
2019-01-23T00:00:52.770Z,-3.20
2019-01-23T00:03:23.006Z,-3.30
2019-01-23T00:05:53.305Z,-3.30
2019-01-23T00:08:23.800Z,-3.50
2019-01-23T00:10:53.996Z,-3.50
2019-01-23T00:13:24.176Z,-3.50
2019-01-23T00:15:54.712Z,-3.40
2019-01-23T00:18:24.989Z,-3.30
2019-01-23T00:20:55.189Z,-3.50
2019-01-23T00:23:25.581Z,-3.60
2019-01-23T00:25:55.906Z,-3.60
2019-01-23T00:28:26.097Z,-3.70
2019-01-23T00:30:56.345Z,-3.70
2019-01-23T00:33:26.620Z,-3.60
2019-01-23T00:35:56.861Z,-3.60
2019-01-23T00:38:27.248Z,-3.50
2019-01-23T00:40:57.497Z,-3.60
2019-01-23T00:43:27.687Z,-3.60
2019-01-23T00:45:58.041Z,-3.60
2019-01-23T00:48:28.275Z,-3.50
2019-01-23T00:50:58.470Z,-3.50
2019-01-23T00:53:28.748Z,-3.80
2019-01-23T00:55:59.012Z,-3.70
2019-01-23T00:58:29.249Z,-3.60
2019-01-23T01:00:59.513Z,-3.50
2019-01-23T01:03:29.530Z,-3.50
2019-01-23T01:05:59.569Z,-3.50
2019-01-23T01:08:29.612Z,-3.50
2019-01-23T01:10:59.683Z,-3.50
2019-01-23T01:13:29.633Z,-3.50
2019-01-23T01:15:59.901Z,-3.50
2019-01-23T01:18:30.322Z,-3.50
2019-01-23T01:21:00.526Z,-3.40
2019-01-23T01:23:30.890Z,-3.50
2019-01-23T01:26:01.350Z,-3.40
2019-01-23T01:28:31.603Z,-3.50
2019-01-23T01:31:01.905Z,-3.50
2019-01-23T01:33:34.016Z,-3.50
2019-01-23T01:36:03.921Z,-3.50
2019-01-23T01:38:34.204Z,-3.50
2019-01-23T01:41:04.441Z,-3.50
2019-01-23T01:43:34.813Z,-3.40
2019-01-23T01:46:05.100Z,-3.50
2019-01-23T01:48:35.388Z,-3.50
2019-01-23T01:51:05.644Z,-3.60
2019-01-23T01:53:35.926Z,-3.70
2019-01-23T01:56:06.154Z,-3.80
2019-01-23T01:58:36.421Z,-3.80
2019-01-23T02:01:06.869Z,-3.80
2019-01-23T02:03:37.177Z,-3.70
2019-01-23T02:06:07.350Z,-3.80
2019-01-23T02:08:37.636Z,-3.60
2019-01-23T02:11:07.932Z,-3.50
2019-01-23T02:13:38.082Z,-3.50
2019-01-23T02:16:08.918Z,-3.60
2019-01-23T02:18:39.178Z,-3.60
2019-01-23T02:21:10.829Z,-3.70
2019-01-23T02:23:41.847Z,-3.60
2019-01-23T02:26:12.362Z,-3.60
2019-01-23T02:28:42.999Z,-3.60
2019-01-23T02:31:13.346Z,-3.60
2019-01-23T02:33:43.742Z,-3.60
2019-01-23T02:36:14.006Z,-3.60
2019-01-23T02:38:44.313Z,-3.60
2019-01-23T02:41:14.569Z,-3.60
2019-01-23T02:43:45.030Z,-3.60
2019-01-23T02:46:15.480Z,-3.70
2019-01-23T02:48:45.582Z,-3.70
2019-01-23T02:51:15.892Z,-3.60
2019-01-23T02:53:46.129Z,-3.60
2019-01-23T02:56:16.406Z,-3.60
2019-01-23T02:58:46.644Z,-3.60
2019-01-23T03:01:16.914Z,-3.60
2019-01-23T03:03:47.146Z,-3.60
2019-01-23T03:06:17.411Z,-3.60
2019-01-23T03:08:48.628Z,-3.70
2019-01-23T03:11:18.925Z,-3.80
2019-01-23T03:13:49.128Z,-3.70
2019-01-23T03:16:19.595Z,-3.70
2019-01-23T03:18:49.806Z,-3.70
2019-01-23T03:21:20.056Z,-3.80
2019-01-23T03:23:50.542Z,-3.80
2019-01-23T03:26:20.907Z,-3.70
2019-01-23T03:28:51.236Z,-3.60
2019-01-23T03:31:21.462Z,-3.50
2019-01-23T03:33:51.655Z,-3.50
2019-01-23T03:36:21.892Z,-3.30
2019-01-23T03:38:52.200Z,-3.20
2019-01-23T03:41:22.585Z,-3.20
2019-01-23T03:43:52.821Z,-3.20
2019-01-23T03:46:23.167Z,-3.20
2019-01-23T03:48:53.409Z,-3.30
2019-01-23T03:51:23.602Z,-3.30
2019-01-23T03:53:53.902Z,-3.40
2019-01-23T03:56:24.194Z,-3.40
2019-01-23T03:58:54.581Z,-3.50
2019-01-23T04:01:24.838Z,-3.60
2019-01-23T04:03:55.003Z,-3.70
2019-01-23T04:06:25.323Z,-3.70
2019-01-23T04:08:55.661Z,-3.70
2019-01-23T04:11:25.889Z,-3.70
2019-01-23T04:13:56.079Z,-3.80
2019-01-23T04:16:26.410Z,-3.80
2019-01-23T04:18:56.636Z,-3.80
2019-01-23T04:21:26.886Z,-3.80
2019-01-23T04:23:57.196Z,-3.80
2019-01-23T04:26:27.549Z,-3.80
2019-01-23T04:28:57.824Z,-3.80
2019-01-23T04:31:28.297Z,-3.80
2019-01-23T04:33:58.515Z,-3.80
2019-01-23T04:36:28.765Z,-3.80
2019-01-23T04:38:59.044Z,-3.80
2019-01-23T04:41:29.282Z,-3.70
2019-01-23T04:43:59.469Z,-3.80
2019-01-23T04:46:29.792Z,-3.70
2019-01-23T04:49:00.072Z,-3.60
2019-01-23T04:51:39.774Z,-3.60
2019-01-23T04:54:13.652Z,-3.70
2019-01-23T04:56:43.954Z,-3.50
2019-01-23T04:59:14.081Z,-3.50
2019-01-23T05:01:44.385Z,-3.60
2019-01-23T05:04:14.925Z,-3.60
2019-01-23T05:06:44.959Z,-3.50
2019-01-23T05:09:15.240Z,-3.50
2019-01-23T05:11:45.526Z,-3.50
2019-01-23T05:14:15.758Z,-3.50
2019-01-23T05:16:45.671Z,-3.40
2019-01-23T05:19:15.671Z,-3.40
2019-01-23T05:21:45.614Z,-3.40
2019-01-23T05:24:25.268Z,-3.40
2019-01-23T05:27:02.899Z,-3.30
2019-01-23T05:29:39.445Z,-3.40
2019-01-23T05:32:21.963Z,-3.40
2019-01-23T05:34:57.887Z,-3.40
2019-01-23T05:37:49.013Z,-3.70
2019-01-23T05:40:19.200Z,-3.80
2019-01-23T05:42:49.192Z,-3.80
2019-01-23T05:45:19.545Z,-3.70
2019-01-23T05:47:49.542Z,-3.80
2019-01-23T05:50:19.819Z,-3.80
2019-01-23T05:52:49.854Z,-3.80
2019-01-23T05:55:19.934Z,-3.70
2019-01-23T05:57:49.856Z,-3.60
2019-01-23T06:00:21.244Z,-3.50
2019-01-23T06:02:51.490Z,-3.50
2019-01-23T06:05:22.421Z,-3.40
2019-01-23T06:07:52.562Z,-3.30
2019-01-23T06:10:22.576Z,-3.30
2019-01-23T06:12:52.521Z,-3.20
2019-01-23T06:15:22.547Z,-3.30
2019-01-23T06:17:52.543Z,-3.30
2019-01-23T06:20:22.676Z,-3.30
2019-01-23T06:22:52.597Z,-3.30
2019-01-23T06:25:22.708Z,-3.40
2019-01-23T06:27:52.764Z,-3.50
2019-01-23T06:30:24.685Z,-3.50
2019-01-23T06:32:54.827Z,-3.50
2019-01-23T06:35:24.775Z,-3.50
2019-01-23T06:37:54.841Z,-3.50
2019-01-23T06:40:25.013Z,-3.50
2019-01-23T06:42:54.951Z,-3.50
2019-01-23T06:45:24.914Z,-3.60
2019-01-23T06:47:54.901Z,-3.60
2019-01-23T06:50:24.873Z,-3.40
2019-01-23T06:52:54.797Z,-3.30
2019-01-23T06:55:24.820Z,-3.20
2019-01-23T06:57:54.857Z,-3.20
2019-01-23T07:00:26.318Z,-3.10
2019-01-23T07:02:56.522Z,-3.10
2019-01-23T07:05:26.477Z,-3.10
2019-01-23T07:07:56.425Z,-3.00
2019-01-23T07:10:27.258Z,-3.00
2019-01-23T07:12:57.167Z,-3.00
2019-01-23T07:15:27.236Z,-3.00
2019-01-23T07:17:57.256Z,-3.00
2019-01-23T07:20:28.404Z,-3.10
2019-01-23T07:22:58.592Z,-3.00
2019-01-23T07:25:29.377Z,-2.80
2019-01-23T07:27:59.766Z,-2.70
2019-01-23T07:30:32.831Z,-2.60
2019-01-23T07:33:03.042Z,-2.50
2019-01-23T07:35:33.304Z,-2.40
2019-01-23T07:38:03.592Z,-2.30
2019-01-23T07:40:33.997Z,-2.20
2019-01-23T07:43:04.242Z,-2.10
2019-01-23T07:45:34.562Z,-2.10
2019-01-23T07:48:04.946Z,-2.10
2019-01-23T07:50:35.218Z,-2.00
2019-01-23T07:53:05.721Z,-2.10
2019-01-23T07:55:35.982Z,-2.30
2019-01-23T07:58:09.399Z,-2.30
2019-01-23T08:00:39.509Z,-2.30
2019-01-23T08:03:09.693Z,-2.60
2019-01-23T08:05:40.013Z,-2.70
2019-01-23T08:08:10.289Z,-2.70
2019-01-23T08:10:40.474Z,-2.70
2019-01-23T08:13:10.854Z,-2.70
2019-01-23T08:15:41.120Z,-2.70
2019-01-23T08:18:11.494Z,-2.70
2019-01-23T08:20:41.756Z,-2.70
2019-01-23T08:23:11.993Z,-2.80
2019-01-23T08:25:42.354Z,-2.80
2019-01-23T08:28:12.941Z,-2.70
2019-01-23T08:30:43.263Z,-2.90
2019-01-23T08:33:14.913Z,-2.80
2019-01-23T08:35:45.225Z,-2.70
2019-01-23T08:38:15.494Z,-2.60
2019-01-23T08:40:45.734Z,-2.60
2019-01-23T08:43:16.065Z,-2.70
2019-01-23T08:45:46.375Z,-2.80
2019-01-23T08:48:16.583Z,-2.80
2019-01-23T08:50:47.274Z,-2.80
2019-01-23T08:53:17.560Z,-2.90
2019-01-23T08:55:53.595Z,-2.70
2019-01-23T08:58:19.749Z,-2.60
2019-01-23T09:00:50.046Z,-2.30
2019-01-23T09:03:20.704Z,-2.30
2019-01-23T09:05:51.430Z,-2.30
2019-01-23T09:08:21.644Z,-2.30
2019-01-23T09:10:51.830Z,-2.10
2019-01-23T09:13:27.194Z,-2.00
2019-01-23T09:15:57.478Z,-2.00
2019-01-23T09:18:27.749Z,-1.90
2019-01-23T09:20:58.029Z,-1.70
2019-01-23T09:23:29.910Z,-1.50
2019-01-23T09:26:01.603Z,-1.40
2019-01-23T09:28:31.808Z,-1.30
2019-01-23T09:31:34.216Z,-1.10
2019-01-23T09:34:45.041Z,-0.90
2019-01-23T09:37:54.980Z,-0.80
2019-01-23T09:41:18.103Z,-0.60
2019-01-23T09:44:26.937Z,-0.40
2019-01-23T09:47:42.963Z,-0.10
2019-01-23T09:50:44.820Z,0.20
2019-01-23T09:53:55.355Z,0.30
2019-01-23T09:56:25.694Z,0.30
2019-01-23T09:58:56.068Z,0.40
2019-01-23T10:01:26.034Z,0.50
2019-01-23T10:03:56.338Z,0.60
2019-01-23T10:06:26.632Z,0.70
2019-01-23T10:08:56.988Z,0.70
2019-01-23T10:11:28.130Z,0.70
2019-01-23T10:13:58.407Z,0.70
2019-01-23T10:16:28.609Z,0.70
2019-01-23T10:18:58.930Z,0.70
2019-01-23T10:21:29.285Z,0.70
2019-01-23T10:23:59.602Z,0.70
2019-01-23T10:26:29.845Z,0.80
2019-01-23T10:29:00.847Z,0.80
2019-01-23T10:31:31.085Z,0.90
2019-01-23T10:34:01.366Z,0.90
2019-01-23T10:36:31.630Z,1.00
2019-01-23T10:39:01.867Z,1.00
2019-01-23T10:41:32.117Z,1.00
2019-01-23T10:44:02.384Z,1.10
2019-01-23T10:46:32.624Z,1.00
2019-01-23T10:49:02.944Z,1.10
2019-01-23T10:51:33.121Z,1.10
2019-01-23T10:54:03.447Z,1.10
2019-01-23T10:56:33.766Z,1.20
2019-01-23T10:59:04.012Z,1.20
2019-01-23T11:01:34.225Z,1.30
2019-01-23T11:04:05.095Z,1.30
2019-01-23T11:06:35.319Z,1.30
2019-01-23T11:09:08.261Z,1.30
2019-01-23T11:11:38.474Z,1.40
2019-01-23T11:14:08.645Z,1.40
2019-01-23T11:16:38.891Z,1.50
2019-01-23T11:19:09.253Z,1.50
2019-01-23T11:21:39.380Z,1.60
2019-01-23T11:24:09.689Z,1.60
2019-01-23T11:26:39.845Z,1.70
2019-01-23T11:29:10.038Z,1.80
2019-01-23T11:31:40.352Z,1.90
2019-01-23T11:34:10.620Z,2.00
2019-01-23T11:36:40.931Z,2.00
2019-01-23T11:39:11.713Z,2.00
2019-01-23T11:41:41.958Z,2.10
2019-01-23T11:44:12.200Z,2.10
2019-01-23T11:46:42.500Z,2.10
2019-01-23T11:49:12.749Z,2.20
2019-01-23T11:51:43.122Z,2.30
2019-01-23T11:54:13.336Z,2.40
2019-01-23T11:56:43.636Z,2.40
2019-01-23T11:59:13.861Z,2.40
2019-01-23T12:01:44.188Z,2.40
2019-01-23T12:04:14.354Z,2.50
2019-01-23T12:06:44.596Z,2.50
2019-01-23T12:09:15.776Z,2.50
2019-01-23T12:11:46.041Z,2.30
2019-01-23T12:14:24.831Z,2.20
2019-01-23T12:16:55.924Z,2.30
2019-01-23T12:19:26.136Z,2.30
2019-01-23T12:24:25.701Z,2.40
2019-01-23T12:26:55.858Z,2.40
2019-01-23T12:29:26.197Z,2.30
2019-01-23T12:31:56.546Z,2.30
2019-01-23T12:34:26.624Z,2.40
2019-01-23T12:36:56.853Z,2.40
2019-01-23T12:39:27.121Z,2.50
2019-01-23T12:41:57.412Z,2.50
2019-01-23T12:44:27.705Z,2.50
2019-01-23T12:46:57.979Z,2.70
2019-01-23T12:49:28.245Z,2.70
2019-01-23T12:51:58.554Z,2.90
2019-01-23T12:54:28.862Z,3.00
2019-01-23T12:56:59.171Z,3.10
2019-01-23T12:59:29.458Z,3.20
2019-01-23T13:01:59.677Z,3.20
2019-01-23T13:04:29.905Z,3.30
2019-01-23T13:07:00.256Z,3.30
2019-01-23T13:09:30.501Z,3.40
2019-01-23T13:12:00.761Z,3.50
2019-01-23T13:14:30.949Z,3.50
2019-01-23T13:17:01.254Z,3.50
2019-01-23T13:19:31.487Z,3.50
2019-01-23T13:22:01.845Z,3.40
2019-01-23T13:24:32.070Z,3.40
2019-01-23T13:27:02.348Z,3.40
2019-01-23T13:29:32.640Z,3.30
2019-01-23T13:32:03.029Z,3.30
2019-01-23T13:34:33.280Z,3.30
2019-01-23T13:37:03.594Z,3.30
2019-01-23T13:39:33.855Z,3.30
2019-01-23T13:42:04.918Z,3.40
2019-01-23T13:44:35.402Z,3.40
2019-01-23T13:47:05.718Z,3.40
2019-01-23T13:49:36.288Z,3.40
2019-01-23T13:52:06.757Z,3.40
2019-01-23T13:54:38.407Z,3.30
2019-01-23T13:57:10.740Z,3.30
2019-01-23T13:59:41.015Z,3.30
2019-01-23T14:02:12.613Z,3.20
2019-01-23T14:04:43.013Z,3.20
2019-01-23T14:07:13.272Z,3.10
2019-01-23T14:09:44.389Z,3.10
2019-01-23T14:12:14.685Z,3.10
2019-01-23T14:14:45.223Z,3.10
2019-01-23T14:17:15.613Z,3.10
2019-01-23T14:19:45.969Z,3.10
2019-01-23T14:22:16.222Z,3.10
2019-01-23T14:24:46.435Z,3.10
2019-01-23T14:27:16.805Z,3.10
2019-01-23T14:29:47.077Z,3.20
2019-01-23T14:32:18.510Z,3.10
2019-01-23T14:34:48.797Z,3.10
2019-01-23T14:37:19.123Z,3.20
2019-01-23T14:39:54.627Z,3.20
2019-01-23T14:42:25.092Z,3.30
2019-01-23T14:44:56.449Z,3.30
2019-01-23T14:47:46.372Z,3.30
2019-01-23T14:50:16.674Z,3.30
2019-01-23T14:52:47.463Z,3.20
2019-01-23T14:55:17.982Z,3.20
2019-01-23T14:57:48.253Z,3.10
2019-01-23T15:00:20.692Z,3.10
2019-01-23T15:02:51.074Z,3.10
2019-01-23T15:05:21.389Z,3.10
2019-01-23T15:07:55.632Z,3.10
2019-01-23T15:10:32.467Z,3.10
2019-01-23T15:13:02.981Z,3.00
2019-01-23T15:15:33.264Z,3.00
2019-01-23T15:18:03.742Z,3.10
2019-01-23T15:20:36.951Z,3.00
2019-01-23T15:23:07.288Z,3.00
2019-01-23T15:25:37.626Z,3.00
2019-01-23T15:28:08.020Z,3.00
2019-01-23T15:30:38.345Z,2.90
2019-01-23T15:33:08.590Z,2.90
2019-01-23T15:35:38.973Z,2.80
2019-01-23T15:38:09.253Z,2.80
2019-01-23T15:40:40.086Z,2.70
2019-01-23T15:43:10.367Z,2.70
2019-01-23T15:45:40.764Z,2.60
2019-01-23T15:48:11.021Z,2.60
2019-01-23T15:50:41.336Z,2.50
2019-01-23T15:53:16.855Z,2.40
2019-01-23T15:55:47.299Z,2.40
2019-01-23T15:58:17.559Z,2.30
2019-01-23T16:00:47.854Z,2.30
2019-01-23T16:03:18.037Z,2.30
2019-01-23T16:05:48.430Z,2.30
2019-01-23T16:08:18.767Z,2.20
2019-01-23T16:10:49.014Z,2.20
2019-01-23T16:13:19.276Z,2.20
2019-01-23T16:15:49.665Z,2.20
2019-01-23T16:18:20.021Z,2.20
2019-01-23T16:20:50.505Z,2.20
2019-01-23T16:23:20.869Z,2.20
2019-01-23T16:25:51.154Z,2.20
2019-01-23T16:28:21.439Z,2.20
2019-01-23T16:30:51.662Z,2.20
2019-01-23T16:33:21.816Z,2.20
2019-01-23T16:35:52.347Z,2.20
2019-01-23T16:38:22.570Z,2.10
2019-01-23T16:40:53.027Z,2.10
2019-01-23T16:43:23.151Z,2.10
2019-01-23T16:45:53.378Z,2.00
2019-01-23T16:48:23.770Z,2.00
2019-01-23T16:50:53.945Z,2.00
2019-01-23T16:53:24.538Z,1.90
2019-01-23T16:55:54.944Z,1.90
2019-01-23T16:58:25.294Z,1.90
2019-01-23T17:00:55.670Z,1.90
2019-01-23T17:03:26.127Z,1.90
2019-01-23T17:05:56.548Z,1.90
2019-01-23T17:08:26.761Z,1.90
2019-01-23T17:10:57.113Z,1.90
2019-01-23T17:13:27.365Z,1.90
2019-01-23T17:15:57.739Z,1.90
2019-01-23T17:18:28.046Z,1.90
2019-01-23T17:20:58.329Z,1.90
2019-01-23T17:23:28.572Z,1.90
2019-01-23T17:25:58.946Z,1.90
2019-01-23T17:28:29.174Z,1.90
2019-01-23T17:30:59.407Z,1.90
2019-01-23T17:33:29.683Z,1.90
2019-01-23T17:36:03.501Z,1.90
2019-01-23T17:38:33.833Z,2.00
2019-01-23T17:41:04.085Z,2.00
2019-01-23T17:43:35.375Z,2.00
2019-01-23T17:46:05.926Z,2.00
2019-01-23T17:48:36.248Z,2.00
2019-01-23T17:51:06.600Z,2.00
2019-01-23T17:53:36.916Z,2.00
2019-01-23T17:56:07.292Z,1.90
2019-01-23T17:58:37.573Z,1.90
2019-01-23T18:01:07.964Z,1.90
2019-01-23T18:03:38.468Z,1.90
2019-01-23T18:06:08.770Z,1.90
2019-01-23T18:08:39.057Z,1.90
2019-01-23T18:11:09.290Z,1.90
2019-01-23T18:13:39.420Z,1.90
2019-01-23T18:16:13.527Z,1.80
2019-01-23T18:18:43.724Z,1.80
2019-01-23T18:21:14.090Z,1.90
2019-01-23T18:23:44.398Z,1.90
2019-01-23T18:26:14.705Z,1.80
2019-01-23T18:28:44.952Z,1.80
2019-01-23T18:31:23.135Z,1.90
2019-01-23T18:34:55.491Z,1.80
2019-01-23T18:38:07.187Z,1.80
2019-01-23T18:41:15.704Z,1.80
2019-01-23T18:44:13.465Z,1.80
2019-01-23T18:47:03.102Z,1.80
2019-01-23T18:50:06.137Z,1.80
2019-01-23T18:52:36.574Z,1.80
2019-01-23T18:55:09.577Z,1.80
2019-01-23T18:57:39.930Z,1.80
2019-01-23T19:00:13.994Z,1.80
2019-01-23T19:02:44.262Z,1.80
2019-01-23T19:05:17.388Z,1.80
2019-01-23T19:07:47.632Z,1.80
2019-01-23T19:10:18.321Z,1.80
2019-01-23T19:12:48.699Z,1.90
2019-01-23T19:15:19.973Z,1.90
2019-01-23T19:17:50.213Z,1.80
2019-01-23T19:20:21.528Z,1.80
2019-01-23T19:22:51.769Z,1.70
2019-01-23T19:25:22.362Z,1.70
2019-01-23T19:27:53.494Z,1.60
2019-01-23T19:30:29.372Z,1.50
2019-01-23T19:32:59.951Z,1.40
2019-01-23T19:35:31.549Z,1.30
2019-01-23T19:38:01.820Z,1.30
2019-01-23T19:40:32.089Z,1.20
2019-01-23T19:43:02.394Z,1.20
2019-01-23T19:45:32.665Z,1.10
2019-01-23T19:48:03.164Z,1.10
2019-01-23T19:50:33.437Z,1.10
2019-01-23T19:53:04.930Z,1.00
2019-01-23T19:55:35.240Z,1.00
2019-01-23T19:58:05.686Z,1.00
2019-01-23T20:00:36.030Z,1.00
2019-01-23T20:03:07.538Z,1.00
2019-01-23T20:05:38.259Z,1.00
2019-01-23T20:08:08.815Z,1.00
2019-01-23T20:10:39.146Z,0.90
2019-01-23T20:13:09.397Z,0.90
2019-01-23T20:15:39.604Z,0.90
2019-01-23T20:18:11.448Z,0.90
2019-01-23T20:20:41.781Z,0.90
2019-01-23T20:23:12.172Z,0.80
2019-01-23T20:25:42.398Z,0.80
2019-01-23T20:28:13.834Z,0.80
2019-01-23T20:30:45.452Z,0.80
2019-01-23T20:33:15.721Z,0.80
2019-01-23T20:35:46.010Z,0.80
2019-01-23T20:38:16.363Z,0.80
2019-01-23T20:40:46.669Z,0.80
2019-01-23T20:43:16.777Z,0.80
2019-01-23T20:45:47.164Z,0.80
2019-01-23T20:48:17.581Z,0.80
2019-01-23T20:50:47.945Z,0.80
2019-01-23T20:53:18.414Z,0.80
2019-01-23T20:55:48.667Z,0.80
2019-01-23T20:58:19.060Z,0.80
2019-01-23T21:00:49.414Z,0.80
2019-01-23T21:03:19.771Z,0.80
2019-01-23T21:05:50.240Z,0.90
2019-01-23T21:08:20.567Z,0.90
2019-01-23T21:10:51.001Z,0.90
2019-01-23T21:13:21.724Z,0.80
2019-01-23T21:15:52.356Z,0.90
2019-01-23T21:18:22.885Z,0.90
2019-01-23T21:20:53.477Z,0.80
2019-01-23T21:23:23.782Z,0.80
2019-01-23T21:25:54.040Z,0.80
2019-01-23T21:28:24.305Z,0.80
2019-01-23T21:30:54.711Z,0.80
2019-01-23T21:33:24.950Z,0.80
2019-01-23T21:35:55.478Z,0.80
2019-01-23T21:38:25.740Z,0.80
2019-01-23T21:40:55.922Z,0.80
2019-01-23T21:43:26.261Z,0.80
2019-01-23T21:45:56.503Z,0.80
2019-01-23T21:48:26.699Z,0.80
2019-01-23T21:50:56.975Z,0.80
2019-01-23T21:53:27.204Z,0.80
2019-01-23T21:55:57.484Z,0.80
2019-01-23T21:58:28.812Z,0.70
2019-01-23T22:01:00.290Z,0.80
2019-01-23T22:03:30.522Z,0.80
2019-01-23T22:06:00.810Z,0.80
2019-01-23T22:08:31.041Z,0.80
2019-01-23T22:11:01.267Z,0.80
2019-01-23T22:13:31.535Z,0.80
2019-01-23T22:16:01.770Z,0.80
2019-01-23T22:18:32.039Z,0.80
2019-01-23T22:21:02.302Z,0.80
2019-01-23T22:23:32.522Z,0.80
2019-01-23T22:26:02.859Z,0.80
2019-01-23T22:28:33.177Z,0.80
2019-01-23T22:31:03.403Z,0.80
2019-01-23T22:33:33.654Z,0.80
2019-01-23T22:36:03.977Z,0.80
2019-01-23T22:38:34.316Z,0.80
2019-01-23T22:41:04.713Z,0.80
2019-01-23T22:43:34.909Z,0.80
2019-01-23T22:46:05.538Z,0.80
2019-01-23T22:48:35.785Z,0.80
2019-01-23T22:51:06.312Z,0.80
2019-01-23T22:53:36.576Z,0.80
2019-01-23T22:56:07.037Z,0.80
2019-01-23T22:58:37.334Z,0.80
2019-01-23T23:01:31.081Z,0.80
2019-01-23T23:04:03.340Z,0.80
2019-01-23T23:06:33.941Z,0.60
2019-01-23T23:09:07.208Z,0.60
2019-01-23T23:11:37.501Z,0.60
2019-01-23T23:14:07.900Z,0.60
2019-01-23T23:16:38.300Z,0.60
2019-01-23T23:19:08.548Z,0.60
2019-01-23T23:21:38.798Z,0.50
2019-01-23T23:24:08.999Z,0.50
2019-01-23T23:26:39.194Z,0.50
2019-01-23T23:29:09.438Z,0.60
2019-01-23T23:31:39.777Z,0.60
2019-01-23T23:34:10.301Z,0.60
2019-01-23T23:36:40.638Z,0.60
2019-01-23T23:39:11.643Z,0.60
2019-01-23T23:41:41.913Z,0.60
2019-01-23T23:44:12.112Z,0.70
2019-01-23T23:46:42.371Z,0.70
2019-01-23T23:49:12.676Z,0.70
2019-01-23T23:51:42.856Z,0.70
2019-01-23T23:54:13.137Z,0.70
2019-01-23T23:56:43.392Z,0.80
2019-01-23T23:59:13.495Z,0.80
